sensor_id;sensor_type;location;lat;lon;timestamp;P1;durP1;ratioP1;P2;durP2;ratioP2
8397;SDS011;4236;54.504;9.588;2022-07-05T00:01:14;5.60;;;3.93;;
8397;SDS011;4236;54.504;9.588;2022-07-05T00:03:42;7.93;;;4.20;;
8397;SDS011;4236;54.504;9.588;2022-07-05T00:06:10;4.77;;;4.10;;
8397;SDS011;4236;54.504;9.588;2022-07-05T00:08:38;3.97;;;3.67;;
8397;SDS011;4236;54.504;9.588;2022-07-05T00:11:06;12.23;;;3.80;;
8397;SDS011;4236;54.504;9.588;2022-07-05T00:13:33;4.20;;;3.70;;
8397;SDS011;4236;54.504;9.588;2022-07-05T00:16:03;6.77;;;4.10;;
8397;SDS011;4236;54.504;9.588;2022-07-05T00:18:31;7.13;;;3.67;;
8397;SDS011;4236;54.504;9.588;2022-07-05T00:20:59;8.07;;;3.87;;
8397;SDS011;4236;54.504;9.588;2022-07-05T00:23:26;6.83;;;3.97;;
8397;SDS011;4236;54.504;9.588;2022-07-05T00:25:54;9.10;;;3.50;;
8397;SDS011;4236;54.504;9.588;2022-07-05T00:28:22;10.50;;;4.07;;
8397;SDS011;4236;54.504;9.588;2022-07-05T00:30:49;3.30;;;3.10;;
8397;SDS011;4236;54.504;9.588;2022-07-05T00:33:18;9.00;;;4.33;;
8397;SDS011;4236;54.504;9.588;2022-07-05T00:35:46;5.47;;;3.60;;
8397;SDS011;4236;54.504;9.588;2022-07-05T00:38:13;6.57;;;3.40;;
8397;SDS011;4236;54.504;9.588;2022-07-05T00:40:41;12.37;;;4.40;;
8397;SDS011;4236;54.504;9.588;2022-07-05T00:43:09;6.73;;;4.00;;
8397;SDS011;4236;54.504;9.588;2022-07-05T00:45:37;7.80;;;3.53;;
8397;SDS011;4236;54.504;9.588;2022-07-05T00:48:04;4.33;;;3.50;;
8397;SDS011;4236;54.504;9.588;2022-07-05T00:50:34;6.57;;;3.77;;
8397;SDS011;4236;54.504;9.588;2022-07-05T00:53:01;6.47;;;3.50;;
8397;SDS011;4236;54.504;9.588;2022-07-05T00:55:29;5.93;;;3.50;;
8397;SDS011;4236;54.504;9.588;2022-07-05T00:57:57;10.03;;;3.70;;
8397;SDS011;4236;54.504;9.588;2022-07-05T01:00:24;4.43;;;3.60;;
8397;SDS011;4236;54.504;9.588;2022-07-05T01:02:52;4.73;;;3.40;;
8397;SDS011;4236;54.504;9.588;2022-07-05T01:05:21;8.37;;;3.30;;
8397;SDS011;4236;54.504;9.588;2022-07-05T01:07:50;4.73;;;3.60;;
8397;SDS011;4236;54.504;9.588;2022-07-05T01:10:17;8.83;;;3.10;;
8397;SDS011;4236;54.504;9.588;2022-07-05T01:12:45;6.13;;;4.23;;
8397;SDS011;4236;54.504;9.588;2022-07-05T01:15:13;5.63;;;3.57;;
8397;SDS011;4236;54.504;9.588;2022-07-05T01:17:41;3.23;;;3.03;;
8397;SDS011;4236;54.504;9.588;2022-07-05T01:20:09;12.33;;;4.10;;
8397;SDS011;4236;54.504;9.588;2022-07-05T01:22:51;10.03;;;3.53;;
8397;SDS011;4236;54.504;9.588;2022-07-05T01:25:20;3.87;;;3.30;;
8397;SDS011;4236;54.504;9.588;2022-07-05T01:27:48;5.60;;;3.37;;
8397;SDS011;4236;54.504;9.588;2022-07-05T01:30:16;4.50;;;3.30;;
8397;SDS011;4236;54.504;9.588;2022-07-05T01:32:45;4.50;;;3.70;;
8397;SDS011;4236;54.504;9.588;2022-07-05T01:35:13;7.80;;;3.03;;
8397;SDS011;4236;54.504;9.588;2022-07-05T01:37:46;6.33;;;3.40;;
8397;SDS011;4236;54.504;9.588;2022-07-05T01:40:17;4.10;;;3.77;;
8397;SDS011;4236;54.504;9.588;2022-07-05T01:42:45;4.03;;;3.57;;
8397;SDS011;4236;54.504;9.588;2022-07-05T01:45:13;6.03;;;3.40;;
8397;SDS011;4236;54.504;9.588;2022-07-05T01:48:02;2.90;;;2.60;;
8397;SDS011;4236;54.504;9.588;2022-07-05T01:50:32;6.40;;;3.07;;
8397;SDS011;4236;54.504;9.588;2022-07-05T01:53:03;8.50;;;3.30;;
8397;SDS011;4236;54.504;9.588;2022-07-05T01:55:33;7.67;;;3.50;;
8397;SDS011;4236;54.504;9.588;2022-07-05T01:58:01;5.00;;;3.63;;
8397;SDS011;4236;54.504;9.588;2022-07-05T02:00:29;5.37;;;3.47;;
8397;SDS011;4236;54.504;9.588;2022-07-05T02:02:57;5.33;;;4.67;;
8397;SDS011;4236;54.504;9.588;2022-07-05T02:05:27;6.30;;;3.40;;
8397;SDS011;4236;54.504;9.588;2022-07-05T02:07:54;6.43;;;4.27;;
8397;SDS011;4236;54.504;9.588;2022-07-05T02:10:22;4.80;;;3.70;;
8397;SDS011;4236;54.504;9.588;2022-07-05T02:12:51;3.50;;;3.03;;
8397;SDS011;4236;54.504;9.588;2022-07-05T02:15:18;5.77;;;3.53;;
8397;SDS011;4236;54.504;9.588;2022-07-05T02:17:46;3.53;;;3.23;;
8397;SDS011;4236;54.504;9.588;2022-07-05T02:20:13;9.50;;;3.23;;
8397;SDS011;4236;54.504;9.588;2022-07-05T02:22:42;4.20;;;3.70;;
8397;SDS011;4236;54.504;9.588;2022-07-05T02:25:11;3.40;;;3.17;;
8397;SDS011;4236;54.504;9.588;2022-07-05T02:27:39;7.67;;;3.27;;
8397;SDS011;4236;54.504;9.588;2022-07-05T02:30:08;4.57;;;3.60;;
8397;SDS011;4236;54.504;9.588;2022-07-05T02:32:36;6.23;;;3.63;;
8397;SDS011;4236;54.504;9.588;2022-07-05T02:35:04;7.83;;;3.37;;
8397;SDS011;4236;54.504;9.588;2022-07-05T02:37:34;4.97;;;3.10;;
8397;SDS011;4236;54.504;9.588;2022-07-05T02:40:02;4.40;;;2.90;;
8397;SDS011;4236;54.504;9.588;2022-07-05T02:42:30;7.20;;;4.10;;
8397;SDS011;4236;54.504;9.588;2022-07-05T02:44:58;6.10;;;3.60;;
8397;SDS011;4236;54.504;9.588;2022-07-05T02:47:27;9.23;;;3.23;;
8397;SDS011;4236;54.504;9.588;2022-07-05T02:49:56;8.63;;;3.13;;
8397;SDS011;4236;54.504;9.588;2022-07-05T02:52:24;3.53;;;3.10;;
8397;SDS011;4236;54.504;9.588;2022-07-05T02:54:51;6.00;;;3.40;;
8397;SDS011;4236;54.504;9.588;2022-07-05T02:57:19;6.33;;;3.57;;
8397;SDS011;4236;54.504;9.588;2022-07-05T02:59:47;6.13;;;2.93;;
8397;SDS011;4236;54.504;9.588;2022-07-05T03:02:14;7.90;;;3.00;;
8397;SDS011;4236;54.504;9.588;2022-07-05T03:04:43;7.70;;;3.17;;
8397;SDS011;4236;54.504;9.588;2022-07-05T03:07:11;4.40;;;2.83;;
8397;SDS011;4236;54.504;9.588;2022-07-05T03:09:39;5.60;;;2.80;;
8397;SDS011;4236;54.504;9.588;2022-07-05T03:12:07;4.23;;;3.20;;
8397;SDS011;4236;54.504;9.588;2022-07-05T03:14:35;3.40;;;3.00;;
8397;SDS011;4236;54.504;9.588;2022-07-05T03:17:02;7.83;;;3.23;;
8397;SDS011;4236;54.504;9.588;2022-07-05T03:19:30;9.27;;;3.60;;
8397;SDS011;4236;54.504;9.588;2022-07-05T03:21:59;6.60;;;3.40;;
8397;SDS011;4236;54.504;9.588;2022-07-05T03:24:27;8.43;;;4.00;;
8397;SDS011;4236;54.504;9.588;2022-07-05T03:26:54;8.03;;;3.60;;
8397;SDS011;4236;54.504;9.588;2022-07-05T03:29:22;8.60;;;3.97;;
8397;SDS011;4236;54.504;9.588;2022-07-05T03:31:49;3.93;;;3.17;;
8397;SDS011;4236;54.504;9.588;2022-07-05T03:34:17;7.77;;;3.27;;
8397;SDS011;4236;54.504;9.588;2022-07-05T03:36:45;7.23;;;3.23;;
8397;SDS011;4236;54.504;9.588;2022-07-05T03:39:14;3.50;;;3.20;;
8397;SDS011;4236;54.504;9.588;2022-07-05T03:41:41;6.87;;;2.60;;
8397;SDS011;4236;54.504;9.588;2022-07-05T03:44:09;4.23;;;3.10;;
8397;SDS011;4236;54.504;9.588;2022-07-05T03:46:36;5.23;;;3.63;;
8397;SDS011;4236;54.504;9.588;2022-07-05T03:49:04;5.87;;;3.60;;
8397;SDS011;4236;54.504;9.588;2022-07-05T03:51:32;8.77;;;2.93;;
8397;SDS011;4236;54.504;9.588;2022-07-05T03:53:59;4.10;;;3.07;;
8397;SDS011;4236;54.504;9.588;2022-07-05T03:56:29;4.50;;;3.37;;
8397;SDS011;4236;54.504;9.588;2022-07-05T03:58:57;6.80;;;3.03;;
8397;SDS011;4236;54.504;9.588;2022-07-05T04:01:24;3.43;;;3.03;;
8397;SDS011;4236;54.504;9.588;2022-07-05T04:03:52;3.60;;;3.03;;
8397;SDS011;4236;54.504;9.588;2022-07-05T04:06:20;3.23;;;2.77;;
8397;SDS011;4236;54.504;9.588;2022-07-05T04:08:48;2.80;;;2.57;;
8397;SDS011;4236;54.504;9.588;2022-07-05T04:11:15;5.70;;;2.97;;
8397;SDS011;4236;54.504;9.588;2022-07-05T04:13:44;3.63;;;2.67;;
8397;SDS011;4236;54.504;9.588;2022-07-05T04:16:12;2.97;;;2.30;;
8397;SDS011;4236;54.504;9.588;2022-07-05T04:18:39;4.63;;;2.93;;
8397;SDS011;4236;54.504;9.588;2022-07-05T04:21:07;4.40;;;3.50;;
8397;SDS011;4236;54.504;9.588;2022-07-05T04:23:35;6.53;;;3.13;;
8397;SDS011;4236;54.504;9.588;2022-07-05T04:26:02;3.10;;;2.80;;
8397;SDS011;4236;54.504;9.588;2022-07-05T04:28:30;7.03;;;2.97;;
8397;SDS011;4236;54.504;9.588;2022-07-05T04:30:59;5.50;;;2.60;;
8397;SDS011;4236;54.504;9.588;2022-07-05T04:33:27;3.00;;;2.80;;
8397;SDS011;4236;54.504;9.588;2022-07-05T04:35:54;3.50;;;3.30;;
8397;SDS011;4236;54.504;9.588;2022-07-05T04:38:22;3.60;;;3.30;;
8397;SDS011;4236;54.504;9.588;2022-07-05T04:40:49;5.03;;;3.60;;
8397;SDS011;4236;54.504;9.588;2022-07-05T04:43:17;5.13;;;3.77;;
8397;SDS011;4236;54.504;9.588;2022-07-05T04:45:45;4.30;;;3.90;;
8397;SDS011;4236;54.504;9.588;2022-07-05T04:48:19;4.57;;;3.30;;
8397;SDS011;4236;54.504;9.588;2022-07-05T04:50:47;4.13;;;3.13;;
8397;SDS011;4236;54.504;9.588;2022-07-05T04:53:14;3.33;;;2.87;;
8397;SDS011;4236;54.504;9.588;2022-07-05T04:55:43;2.80;;;2.53;;
8397;SDS011;4236;54.504;9.588;2022-07-05T04:58:10;3.40;;;3.10;;
8397;SDS011;4236;54.504;9.588;2022-07-05T05:00:38;4.47;;;2.90;;
8397;SDS011;4236;54.504;9.588;2022-07-05T05:03:06;3.20;;;2.60;;
8397;SDS011;4236;54.504;9.588;2022-07-05T05:05:34;4.60;;;2.63;;
8397;SDS011;4236;54.504;9.588;2022-07-05T05:08:02;4.13;;;2.80;;
8397;SDS011;4236;54.504;9.588;2022-07-05T05:10:30;4.07;;;2.90;;
8397;SDS011;4236;54.504;9.588;2022-07-05T05:12:58;3.10;;;2.80;;
8397;SDS011;4236;54.504;9.588;2022-07-05T05:15:26;4.97;;;2.93;;
8397;SDS011;4236;54.504;9.588;2022-07-05T05:17:54;2.80;;;2.53;;
8397;SDS011;4236;54.504;9.588;2022-07-05T05:20:21;4.40;;;2.70;;
8397;SDS011;4236;54.504;9.588;2022-07-05T05:22:50;3.50;;;2.93;;
8397;SDS011;4236;54.504;9.588;2022-07-05T05:25:18;3.40;;;2.90;;
8397;SDS011;4236;54.504;9.588;2022-07-05T05:27:46;3.83;;;2.60;;
8397;SDS011;4236;54.504;9.588;2022-07-05T05:30:15;11.63;;;2.58;;
8397;SDS011;4236;54.504;9.588;2022-07-05T05:32:44;2.95;;;2.45;;
8397;SDS011;4236;54.504;9.588;2022-07-05T05:35:12;3.05;;;2.30;;
8397;SDS011;4236;54.504;9.588;2022-07-05T05:37:47;2.75;;;2.10;;
8397;SDS011;4236;54.504;9.588;2022-07-05T05:40:17;3.67;;;2.88;;
8397;SDS011;4236;54.504;9.588;2022-07-05T05:42:45;5.78;;;2.70;;
8397;SDS011;4236;54.504;9.588;2022-07-05T05:45:13;3.80;;;2.75;;
8397;SDS011;4236;54.504;9.588;2022-07-05T05:47:42;3.10;;;2.80;;
8397;SDS011;4236;54.504;9.588;2022-07-05T05:50:11;2.92;;;2.58;;
8397;SDS011;4236;54.504;9.588;2022-07-05T05:52:38;2.40;;;2.20;;
8397;SDS011;4236;54.504;9.588;2022-07-05T05:55:07;2.38;;;2.17;;
8397;SDS011;4236;54.504;9.588;2022-07-05T05:57:36;4.75;;;2.58;;
8397;SDS011;4236;54.504;9.588;2022-07-05T06:00:04;3.05;;;2.60;;
8397;SDS011;4236;54.504;9.588;2022-07-05T06:02:33;2.42;;;2.20;;
8397;SDS011;4236;54.504;9.588;2022-07-05T06:05:01;2.33;;;2.13;;
8397;SDS011;4236;54.504;9.588;2022-07-05T06:07:29;4.97;;;2.20;;
8397;SDS011;4236;54.504;9.588;2022-07-05T06:09:57;2.45;;;2.22;;
8397;SDS011;4236;54.504;9.588;2022-07-05T06:12:24;2.72;;;1.95;;
8397;SDS011;4236;54.504;9.588;2022-07-05T06:14:53;3.95;;;2.17;;
8397;SDS011;4236;54.504;9.588;2022-07-05T06:17:21;2.30;;;2.10;;
8397;SDS011;4236;54.504;9.588;2022-07-05T06:19:48;2.67;;;1.80;;
8397;SDS011;4236;54.504;9.588;2022-07-05T06:22:16;2.92;;;2.35;;
8397;SDS011;4236;54.504;9.588;2022-07-05T06:24:44;3.00;;;2.80;;
8397;SDS011;4236;54.504;9.588;2022-07-05T06:27:32;2.20;;;2.00;;
8397;SDS011;4236;54.504;9.588;2022-07-05T06:30:06;3.65;;;2.20;;
8397;SDS011;4236;54.504;9.588;2022-07-05T06:32:35;5.05;;;1.92;;
8397;SDS011;4236;54.504;9.588;2022-07-05T06:35:04;2.78;;;2.45;;
8397;SDS011;4236;54.504;9.588;2022-07-05T06:37:39;2.67;;;2.20;;
8397;SDS011;4236;54.504;9.588;2022-07-05T06:40:09;3.15;;;2.67;;
8397;SDS011;4236;54.504;9.588;2022-07-05T06:42:43;4.97;;;2.25;;
8397;SDS011;4236;54.504;9.588;2022-07-05T06:45:12;2.13;;;2.03;;
8397;SDS011;4236;54.504;9.588;2022-07-05T06:47:40;2.95;;;2.33;;
8397;SDS011;4236;54.504;9.588;2022-07-05T06:50:08;2.33;;;1.90;;
8397;SDS011;4236;54.504;9.588;2022-07-05T06:52:36;3.42;;;2.17;;
8397;SDS011;4236;54.504;9.588;2022-07-05T06:55:06;2.83;;;2.63;;
8397;SDS011;4236;54.504;9.588;2022-07-05T06:57:34;5.40;;;2.30;;
8397;SDS011;4236;54.504;9.588;2022-07-05T07:00:02;5.80;;;2.40;;
8397;SDS011;4236;54.504;9.588;2022-07-05T07:02:52;3.97;;;2.83;;
8397;SDS011;4236;54.504;9.588;2022-07-05T07:05:20;2.80;;;2.60;;
8397;SDS011;4236;54.504;9.588;2022-07-05T07:07:55;2.73;;;2.53;;
8397;SDS011;4236;54.504;9.588;2022-07-05T07:10:40;4.30;;;2.80;;
8397;SDS011;4236;54.504;9.588;2022-07-05T07:13:12;2.60;;;2.40;;
8397;SDS011;4236;54.504;9.588;2022-07-05T07:15:39;4.57;;;3.00;;
8397;SDS011;4236;54.504;9.588;2022-07-05T07:18:12;3.40;;;3.20;;
8397;SDS011;4236;54.504;9.588;2022-07-05T07:20:40;4.53;;;3.43;;
8397;SDS011;4236;54.504;9.588;2022-07-05T07:23:08;3.77;;;3.40;;
8397;SDS011;4236;54.504;9.588;2022-07-05T07:25:36;4.73;;;2.87;;
8397;SDS011;4236;54.504;9.588;2022-07-05T07:28:04;5.77;;;3.07;;
8397;SDS011;4236;54.504;9.588;2022-07-05T07:30:32;4.77;;;2.97;;
8397;SDS011;4236;54.504;9.588;2022-07-05T07:32:59;2.47;;;2.27;;
8397;SDS011;4236;54.504;9.588;2022-07-05T07:35:32;2.93;;;2.70;;
8397;SDS011;4236;54.504;9.588;2022-07-05T07:38:00;3.70;;;2.80;;
8397;SDS011;4236;54.504;9.588;2022-07-05T07:40:28;4.27;;;2.57;;
8397;SDS011;4236;54.504;9.588;2022-07-05T07:42:55;5.87;;;3.33;;
8397;SDS011;4236;54.504;9.588;2022-07-05T07:45:23;2.53;;;2.33;;
8397;SDS011;4236;54.504;9.588;2022-07-05T07:47:52;5.73;;;2.40;;
8397;SDS011;4236;54.504;9.588;2022-07-05T07:50:19;3.03;;;2.20;;
8397;SDS011;4236;54.504;9.588;2022-07-05T07:52:48;2.47;;;2.27;;
8397;SDS011;4236;54.504;9.588;2022-07-05T07:55:16;4.20;;;2.93;;
8397;SDS011;4236;54.504;9.588;2022-07-05T07:57:44;3.50;;;2.37;;
8397;SDS011;4236;54.504;9.588;2022-07-05T08:00:13;5.03;;;2.23;;
8397;SDS011;4236;54.504;9.588;2022-07-05T08:02:41;3.50;;;2.80;;
8397;SDS011;4236;54.504;9.588;2022-07-05T08:05:09;3.77;;;2.73;;
8397;SDS011;4236;54.504;9.588;2022-07-05T08:07:36;4.80;;;3.40;;
8397;SDS011;4236;54.504;9.588;2022-07-05T08:10:06;2.60;;;2.40;;
8397;SDS011;4236;54.504;9.588;2022-07-05T08:12:35;3.10;;;2.40;;
8397;SDS011;4236;54.504;9.588;2022-07-05T08:15:03;2.87;;;2.53;;
8397;SDS011;4236;54.504;9.588;2022-07-05T08:17:34;3.60;;;2.00;;
8397;SDS011;4236;54.504;9.588;2022-07-05T08:20:02;3.93;;;2.77;;
8397;SDS011;4236;54.504;9.588;2022-07-05T08:23:02;6.60;;;2.63;;
8397;SDS011;4236;54.504;9.588;2022-07-05T08:25:31;5.90;;;2.73;;
8397;SDS011;4236;54.504;9.588;2022-07-05T08:27:58;8.00;;;3.87;;
8397;SDS011;4236;54.504;9.588;2022-07-05T08:30:26;3.30;;;2.77;;
8397;SDS011;4236;54.504;9.588;2022-07-05T08:32:54;4.53;;;2.47;;
8397;SDS011;4236;54.504;9.588;2022-07-05T08:35:22;3.73;;;2.73;;
8397;SDS011;4236;54.504;9.588;2022-07-05T08:37:49;3.40;;;2.30;;
8397;SDS011;4236;54.504;9.588;2022-07-05T08:40:17;2.90;;;2.27;;
8397;SDS011;4236;54.504;9.588;2022-07-05T08:42:50;4.03;;;2.47;;
8397;SDS011;4236;54.504;9.588;2022-07-05T08:45:19;4.20;;;2.60;;
8397;SDS011;4236;54.504;9.588;2022-07-05T08:47:48;4.23;;;2.90;;
8397;SDS011;4236;54.504;9.588;2022-07-05T08:50:17;4.53;;;2.70;;
8397;SDS011;4236;54.504;9.588;2022-07-05T08:52:46;3.20;;;2.53;;
8397;SDS011;4236;54.504;9.588;2022-07-05T08:55:14;3.63;;;2.70;;
8397;SDS011;4236;54.504;9.588;2022-07-05T08:57:42;3.77;;;2.47;;
8397;SDS011;4236;54.504;9.588;2022-07-05T09:00:12;3.10;;;2.90;;
8397;SDS011;4236;54.504;9.588;2022-07-05T09:02:40;2.77;;;2.57;;
8397;SDS011;4236;54.504;9.588;2022-07-05T09:05:08;3.83;;;2.70;;
8397;SDS011;4236;54.504;9.588;2022-07-05T09:07:40;5.80;;;3.60;;
8397;SDS011;4236;54.504;9.588;2022-07-05T09:10:15;5.43;;;3.30;;
8397;SDS011;4236;54.504;9.588;2022-07-05T09:12:46;4.10;;;3.50;;
8397;SDS011;4236;54.504;9.588;2022-07-05T09:15:15;3.73;;;3.30;;
8397;SDS011;4236;54.504;9.588;2022-07-05T09:17:43;4.03;;;2.50;;
8397;SDS011;4236;54.504;9.588;2022-07-05T09:20:11;3.83;;;3.30;;
8397;SDS011;4236;54.504;9.588;2022-07-05T09:22:43;3.87;;;2.87;;
8397;SDS011;4236;54.504;9.588;2022-07-05T09:25:14;6.07;;;2.83;;
8397;SDS011;4236;54.504;9.588;2022-07-05T09:30:34;3.00;;;2.77;;
8397;SDS011;4236;54.504;9.588;2022-07-05T09:33:03;5.57;;;3.20;;
8397;SDS011;4236;54.504;9.588;2022-07-05T09:35:34;3.40;;;2.93;;
8397;SDS011;4236;54.504;9.588;2022-07-05T09:38:03;2.70;;;2.17;;
8397;SDS011;4236;54.504;9.588;2022-07-05T09:40:31;5.73;;;2.63;;
8397;SDS011;4236;54.504;9.588;2022-07-05T09:43:11;3.47;;;2.50;;
8397;SDS011;4236;54.504;9.588;2022-07-05T09:45:50;4.90;;;2.37;;
8397;SDS011;4236;54.504;9.588;2022-07-05T09:48:21;3.20;;;2.90;;
8397;SDS011;4236;54.504;9.588;2022-07-05T09:51:04;2.87;;;2.57;;
8397;SDS011;4236;54.504;9.588;2022-07-05T09:53:53;4.73;;;2.80;;
8397;SDS011;4236;54.504;9.588;2022-07-05T09:56:26;2.53;;;2.40;;
8397;SDS011;4236;54.504;9.588;2022-07-05T09:58:58;5.70;;;3.00;;
8397;SDS011;4236;54.504;9.588;2022-07-05T10:01:40;3.67;;;2.63;;
8397;SDS011;4236;54.504;9.588;2022-07-05T10:04:09;2.40;;;2.30;;
8397;SDS011;4236;54.504;9.588;2022-07-05T10:06:37;3.40;;;3.10;;
8397;SDS011;4236;54.504;9.588;2022-07-05T10:09:04;3.27;;;2.57;;
8397;SDS011;4236;54.504;9.588;2022-07-05T10:11:33;3.17;;;2.97;;
8397;SDS011;4236;54.504;9.588;2022-07-05T10:14:02;6.47;;;3.33;;
8397;SDS011;4236;54.504;9.588;2022-07-05T10:16:36;4.30;;;2.97;;
8397;SDS011;4236;54.504;9.588;2022-07-05T10:19:06;6.40;;;3.03;;
8397;SDS011;4236;54.504;9.588;2022-07-05T10:21:40;3.33;;;2.63;;
8397;SDS011;4236;54.504;9.588;2022-07-05T10:24:31;3.23;;;2.93;;
8397;SDS011;4236;54.504;9.588;2022-07-05T10:27:03;3.23;;;3.13;;
8397;SDS011;4236;54.504;9.588;2022-07-05T10:29:34;3.10;;;2.90;;
8397;SDS011;4236;54.504;9.588;2022-07-05T10:32:02;2.67;;;2.47;;
8397;SDS011;4236;54.504;9.588;2022-07-05T10:34:33;2.80;;;2.60;;
8397;SDS011;4236;54.504;9.588;2022-07-05T10:37:20;3.30;;;3.00;;
8397;SDS011;4236;54.504;9.588;2022-07-05T10:39:49;2.93;;;2.70;;
8397;SDS011;4236;54.504;9.588;2022-07-05T10:42:17;2.90;;;2.70;;
8397;SDS011;4236;54.504;9.588;2022-07-05T10:44:46;2.73;;;2.53;;
8397;SDS011;4236;54.504;9.588;2022-07-05T10:47:13;3.70;;;2.83;;
8397;SDS011;4236;54.504;9.588;2022-07-05T10:49:42;2.30;;;2.20;;
8397;SDS011;4236;54.504;9.588;2022-07-05T10:52:22;2.80;;;2.60;;
8397;SDS011;4236;54.504;9.588;2022-07-05T11:00:48;2.60;;;2.40;;
8397;SDS011;4236;54.504;9.588;2022-07-05T11:03:36;5.20;;;3.13;;
8397;SDS011;4236;54.504;9.588;2022-07-05T11:06:07;3.03;;;2.83;;
8397;SDS011;4236;54.504;9.588;2022-07-05T11:11:37;5.60;;;2.80;;
8397;SDS011;4236;54.504;9.588;2022-07-05T11:14:32;2.90;;;2.70;;
8397;SDS011;4236;54.504;9.588;2022-07-05T11:17:10;2.80;;;2.60;;
8397;SDS011;4236;54.504;9.588;2022-07-05T11:20:13;3.90;;;2.93;;
8397;SDS011;4236;54.504;9.588;2022-07-05T11:23:06;2.90;;;2.67;;
8397;SDS011;4236;54.504;9.588;2022-07-05T11:25:36;4.20;;;3.13;;
8397;SDS011;4236;54.504;9.588;2022-07-05T11:28:17;2.90;;;2.80;;
8397;SDS011;4236;54.504;9.588;2022-07-05T11:30:49;5.90;;;3.13;;
8397;SDS011;4236;54.504;9.588;2022-07-05T11:33:28;3.83;;;2.90;;
8397;SDS011;4236;54.504;9.588;2022-07-05T11:35:57;3.27;;;2.97;;
8397;SDS011;4236;54.504;9.588;2022-07-05T11:38:26;2.67;;;2.47;;
8397;SDS011;4236;54.504;9.588;2022-07-05T11:41:16;2.70;;;2.50;;
8397;SDS011;4236;54.504;9.588;2022-07-05T11:43:44;2.63;;;2.43;;
8397;SDS011;4236;54.504;9.588;2022-07-05T11:46:23;3.57;;;2.80;;
8397;SDS011;4236;54.504;9.588;2022-07-05T11:49:11;4.40;;;3.17;;
8397;SDS011;4236;54.504;9.588;2022-07-05T11:51:38;3.47;;;2.77;;
8397;SDS011;4236;54.504;9.588;2022-07-05T11:54:09;3.00;;;2.80;;
8397;SDS011;4236;54.504;9.588;2022-07-05T11:56:43;3.00;;;2.80;;
8397;SDS011;4236;54.504;9.588;2022-07-05T11:59:17;4.10;;;3.20;;
8397;SDS011;4236;54.504;9.588;2022-07-05T12:01:45;3.03;;;2.63;;
8397;SDS011;4236;54.504;9.588;2022-07-05T12:04:20;5.00;;;2.83;;
8397;SDS011;4236;54.504;9.588;2022-07-05T12:06:49;4.40;;;2.90;;
8397;SDS011;4236;54.504;9.588;2022-07-05T12:09:23;4.77;;;2.83;;
8397;SDS011;4236;54.504;9.588;2022-07-05T12:11:51;4.53;;;2.47;;
8397;SDS011;4236;54.504;9.588;2022-07-05T12:14:37;4.07;;;2.70;;
8397;SDS011;4236;54.504;9.588;2022-07-05T12:17:14;3.30;;;2.80;;
8397;SDS011;4236;54.504;9.588;2022-07-05T12:19:50;3.87;;;3.10;;
8397;SDS011;4236;54.504;9.588;2022-07-05T12:22:26;5.63;;;3.17;;
8397;SDS011;4236;54.504;9.588;2022-07-05T12:24:56;6.10;;;3.07;;
8397;SDS011;4236;54.504;9.588;2022-07-05T12:27:25;3.07;;;2.87;;
8397;SDS011;4236;54.504;9.588;2022-07-05T12:29:53;3.40;;;2.70;;
8397;SDS011;4236;54.504;9.588;2022-07-05T12:32:20;4.17;;;2.70;;
8397;SDS011;4236;54.504;9.588;2022-07-05T12:34:48;5.07;;;2.83;;
8397;SDS011;4236;54.504;9.588;2022-07-05T12:37:19;2.83;;;2.60;;
8397;SDS011;4236;54.504;9.588;2022-07-05T12:39:47;3.67;;;3.00;;
8397;SDS011;4236;54.504;9.588;2022-07-05T12:42:30;3.20;;;2.90;;
8397;SDS011;4236;54.504;9.588;2022-07-05T12:45:06;2.63;;;2.50;;
8397;SDS011;4236;54.504;9.588;2022-07-05T12:47:37;2.80;;;2.50;;
8397;SDS011;4236;54.504;9.588;2022-07-05T12:50:15;2.73;;;2.53;;
8397;SDS011;4236;54.504;9.588;2022-07-05T12:52:59;3.33;;;3.03;;
8397;SDS011;4236;54.504;9.588;2022-07-05T12:55:48;4.10;;;2.50;;
8397;SDS011;4236;54.504;9.588;2022-07-05T12:58:45;3.90;;;2.83;;
8397;SDS011;4236;54.504;9.588;2022-07-05T13:01:20;3.30;;;3.10;;
8397;SDS011;4236;54.504;9.588;2022-07-05T13:03:58;3.10;;;2.80;;
8397;SDS011;4236;54.504;9.588;2022-07-05T13:06:40;4.40;;;3.67;;
8397;SDS011;4236;54.504;9.588;2022-07-05T13:09:13;3.93;;;2.93;;
8397;SDS011;4236;54.504;9.588;2022-07-05T13:11:42;2.70;;;2.50;;
8397;SDS011;4236;54.504;9.588;2022-07-05T13:14:12;2.77;;;2.57;;
8397;SDS011;4236;54.504;9.588;2022-07-05T13:16:40;3.17;;;2.80;;
8397;SDS011;4236;54.504;9.588;2022-07-05T13:19:11;3.30;;;2.63;;
8397;SDS011;4236;54.504;9.588;2022-07-05T13:21:39;4.30;;;2.87;;
8397;SDS011;4236;54.504;9.588;2022-07-05T13:24:06;2.80;;;2.60;;
8397;SDS011;4236;54.504;9.588;2022-07-05T13:26:34;2.80;;;2.50;;
8397;SDS011;4236;54.504;9.588;2022-07-05T13:29:02;4.27;;;2.60;;
8397;SDS011;4236;54.504;9.588;2022-07-05T13:31:31;3.10;;;2.37;;
8397;SDS011;4236;54.504;9.588;2022-07-05T13:33:59;5.97;;;2.60;;
8397;SDS011;4236;54.504;9.588;2022-07-05T13:36:27;2.60;;;2.47;;
8397;SDS011;4236;54.504;9.588;2022-07-05T13:38:54;3.73;;;2.57;;
8397;SDS011;4236;54.504;9.588;2022-07-05T13:41:22;4.40;;;2.90;;
8397;SDS011;4236;54.504;9.588;2022-07-05T13:43:50;3.10;;;3.00;;
8397;SDS011;4236;54.504;9.588;2022-07-05T13:46:17;3.00;;;2.80;;
8397;SDS011;4236;54.504;9.588;2022-07-05T13:48:46;3.07;;;2.77;;
8397;SDS011;4236;54.504;9.588;2022-07-05T13:51:14;3.77;;;2.77;;
8397;SDS011;4236;54.504;9.588;2022-07-05T13:53:42;4.40;;;3.20;;
8397;SDS011;4236;54.504;9.588;2022-07-05T13:56:09;3.40;;;3.10;;
8397;SDS011;4236;54.504;9.588;2022-07-05T13:58:38;6.63;;;3.10;;
8397;SDS011;4236;54.504;9.588;2022-07-05T14:01:06;4.50;;;3.23;;
8397;SDS011;4236;54.504;9.588;2022-07-05T14:03:34;2.60;;;2.40;;
8397;SDS011;4236;54.504;9.588;2022-07-05T14:06:03;3.40;;;3.10;;
8397;SDS011;4236;54.504;9.588;2022-07-05T14:08:31;3.63;;;2.80;;
8397;SDS011;4236;54.504;9.588;2022-07-05T14:10:58;3.83;;;3.20;;
8397;SDS011;4236;54.504;9.588;2022-07-05T14:13:27;2.90;;;2.70;;
8397;SDS011;4236;54.504;9.588;2022-07-05T14:15:55;4.70;;;3.10;;
8397;SDS011;4236;54.504;9.588;2022-07-05T14:18:22;3.03;;;2.60;;
8397;SDS011;4236;54.504;9.588;2022-07-05T14:20:51;3.30;;;3.03;;
8397;SDS011;4236;54.504;9.588;2022-07-05T14:23:20;3.40;;;3.10;;
8397;SDS011;4236;54.504;9.588;2022-07-05T14:25:48;3.60;;;3.30;;
8397;SDS011;4236;54.504;9.588;2022-07-05T14:28:16;3.10;;;2.87;;
8397;SDS011;4236;54.504;9.588;2022-07-05T14:30:44;3.97;;;2.70;;
8397;SDS011;4236;54.504;9.588;2022-07-05T14:33:12;3.83;;;2.97;;
8397;SDS011;4236;54.504;9.588;2022-07-05T14:35:41;2.77;;;2.57;;
8397;SDS011;4236;54.504;9.588;2022-07-05T14:38:09;5.60;;;3.50;;
8397;SDS011;4236;54.504;9.588;2022-07-05T14:40:38;5.33;;;3.50;;
8397;SDS011;4236;54.504;9.588;2022-07-05T14:43:06;4.70;;;2.97;;
8397;SDS011;4236;54.504;9.588;2022-07-05T14:45:33;3.17;;;2.53;;
8397;SDS011;4236;54.504;9.588;2022-07-05T14:48:01;3.70;;;3.40;;
8397;SDS011;4236;54.504;9.588;2022-07-05T14:50:29;4.33;;;3.10;;
8397;SDS011;4236;54.504;9.588;2022-07-05T14:52:57;3.60;;;2.80;;
8397;SDS011;4236;54.504;9.588;2022-07-05T14:55:24;2.67;;;2.47;;
8397;SDS011;4236;54.504;9.588;2022-07-05T14:57:53;3.23;;;2.90;;
8397;SDS011;4236;54.504;9.588;2022-07-05T15:00:21;4.07;;;3.20;;
8397;SDS011;4236;54.504;9.588;2022-07-05T15:02:48;4.33;;;2.83;;
8397;SDS011;4236;54.504;9.588;2022-07-05T15:05:24;4.43;;;3.00;;
8397;SDS011;4236;54.504;9.588;2022-07-05T15:07:52;6.50;;;3.33;;
8397;SDS011;4236;54.504;9.588;2022-07-05T15:10:20;3.40;;;2.93;;
8397;SDS011;4236;54.504;9.588;2022-07-05T15:12:47;3.33;;;3.03;;
8397;SDS011;4236;54.504;9.588;2022-07-05T15:15:16;6.50;;;3.43;;
8397;SDS011;4236;54.504;9.588;2022-07-05T15:17:44;5.40;;;2.97;;
8397;SDS011;4236;54.504;9.588;2022-07-05T15:20:12;3.23;;;3.03;;
8397;SDS011;4236;54.504;9.588;2022-07-05T15:22:41;2.93;;;2.60;;
8397;SDS011;4236;54.504;9.588;2022-07-05T15:25:08;6.93;;;3.10;;
8397;SDS011;4236;54.504;9.588;2022-07-05T15:27:36;3.67;;;3.10;;
8397;SDS011;4236;54.504;9.588;2022-07-05T15:30:04;3.73;;;2.80;;
8397;SDS011;4236;54.504;9.588;2022-07-05T15:35:03;3.33;;;3.13;;
8397;SDS011;4236;54.504;9.588;2022-07-05T15:37:31;3.50;;;3.20;;
8397;SDS011;4236;54.504;9.588;2022-07-05T15:39:58;4.90;;;3.10;;
8397;SDS011;4236;54.504;9.588;2022-07-05T15:42:27;2.97;;;2.77;;
8397;SDS011;4236;54.504;9.588;2022-07-05T15:44:54;5.60;;;2.90;;
8397;SDS011;4236;54.504;9.588;2022-07-05T15:47:28;3.63;;;2.83;;